createdAt,value
2023-01-02T00:00:01.540Z,21.31
2023-01-02T00:01:01.602Z,21.31
2023-01-02T00:02:01.510Z,21.30
2023-01-02T00:03:01.575Z,21.31
2023-01-02T00:04:01.574Z,21.31
2023-01-02T00:05:01.455Z,21.30
2023-01-02T00:06:01.432Z,21.31
2023-01-02T00:07:01.438Z,21.30
2023-01-02T00:08:01.400Z,21.30
2023-01-02T00:09:01.390Z,21.30
2023-01-02T00:10:01.386Z,21.29
2023-01-02T00:11:01.342Z,21.30
2023-01-02T00:12:01.330Z,21.30
2023-01-02T00:13:01.312Z,21.31
2023-01-02T00:14:01.290Z,21.31
2023-01-02T00:15:01.265Z,21.31
2023-01-02T00:16:01.266Z,21.31
2023-01-02T00:17:01.241Z,21.31
2023-01-02T00:18:01.221Z,21.30
2023-01-02T00:19:01.222Z,21.30
2023-01-02T00:20:01.196Z,21.30
2023-01-02T00:21:01.181Z,21.31
2023-01-02T00:22:01.168Z,21.31
2023-01-02T00:23:01.156Z,21.31
2023-01-02T00:24:01.145Z,21.30
2023-01-02T00:25:01.127Z,21.30
2023-01-02T00:26:01.121Z,21.30
2023-01-02T00:27:01.106Z,21.30
2023-01-02T00:28:01.105Z,21.30
2023-01-02T00:29:01.078Z,21.30
2023-01-02T00:30:01.066Z,21.31
2023-01-02T00:31:01.075Z,21.31
2023-01-02T00:32:01.040Z,21.31
2023-01-02T00:33:01.020Z,21.31
2023-01-02T00:34:01.008Z,21.31
2023-01-02T00:35:00.994Z,21.31
2023-01-02T00:36:00.994Z,21.30
2023-01-02T00:37:00.973Z,21.31
2023-01-02T00:38:00.959Z,21.30
2023-01-02T00:39:00.940Z,21.31
2023-01-02T00:40:00.937Z,21.31
2023-01-02T00:41:00.927Z,21.30
2023-01-02T00:42:00.907Z,21.31
2023-01-02T00:43:00.913Z,21.31
2023-01-02T00:44:00.877Z,21.31
2023-01-02T00:45:00.862Z,21.30
2023-01-02T00:46:04.828Z,21.30
2023-01-02T00:47:01.903Z,21.29
2023-01-02T00:48:00.861Z,21.30
2023-01-02T00:49:00.810Z,21.29
2023-01-02T00:50:00.810Z,21.29
2023-01-02T00:51:00.784Z,21.30
2023-01-02T00:52:00.770Z,21.30
2023-01-02T00:53:00.746Z,21.29
2023-01-02T00:54:00.748Z,21.30
2023-01-02T00:55:00.748Z,21.29
2023-01-02T00:56:00.714Z,21.29
2023-01-02T00:57:00.701Z,21.29
2023-01-02T00:58:00.688Z,21.30
2023-01-02T00:59:00.665Z,21.29
2023-01-02T01:00:00.651Z,21.29
2023-01-02T01:01:00.691Z,21.30
2023-01-02T01:02:00.728Z,21.30
2023-01-02T01:03:00.648Z,21.29
2023-01-02T01:04:00.605Z,21.30
2023-01-02T01:05:00.597Z,21.30
2023-01-02T01:06:00.579Z,21.30
2023-01-02T01:07:00.538Z,21.29
2023-01-02T01:08:00.536Z,21.30
2023-01-02T01:09:00.508Z,21.30
2023-01-02T01:10:00.485Z,21.30
2023-01-02T01:11:00.467Z,21.30
2023-01-02T01:12:04.770Z,21.29
2023-01-02T01:13:00.437Z,21.30
2023-01-02T01:14:00.432Z,21.29
2023-01-02T01:15:00.407Z,21.30
2023-01-02T01:16:00.419Z,21.30
2023-01-02T01:17:00.391Z,21.29
2023-01-02T01:18:00.369Z,21.29
2023-01-02T01:19:00.377Z,21.29
2023-01-02T01:20:00.370Z,21.29
2023-01-02T01:21:00.343Z,21.29
2023-01-02T01:22:00.343Z,21.30
2023-01-02T01:23:00.321Z,21.29
2023-01-02T01:24:00.308Z,21.29
2023-01-02T01:25:00.292Z,21.29
2023-01-02T01:26:00.273Z,21.29
2023-01-02T01:27:00.265Z,21.29
2023-01-02T01:28:00.256Z,21.29
2023-01-02T01:29:00.255Z,21.29
2023-01-02T01:30:00.244Z,21.29
2023-01-02T01:31:00.232Z,21.29
2023-01-02T01:32:00.311Z,21.28
2023-01-02T01:33:00.209Z,21.29
2023-01-02T01:34:00.201Z,21.29
2023-01-02T01:35:00.214Z,21.28
2023-01-02T01:36:00.171Z,21.28
2023-01-02T01:37:00.137Z,21.28
2023-01-02T01:38:00.124Z,21.29
2023-01-02T01:39:00.146Z,21.28
2023-01-02T01:40:00.116Z,21.29
2023-01-02T01:41:00.079Z,21.28
2023-01-02T01:42:00.085Z,21.27
2023-01-02T01:43:01.109Z,21.27
2023-01-02T01:44:00.018Z,21.27
2023-01-02T01:45:00.030Z,21.28
2023-01-02T01:46:00.042Z,21.29
2023-01-02T01:46:59.962Z,21.28
2023-01-02T01:47:59.945Z,21.28
2023-01-02T01:48:59.938Z,21.28
2023-01-02T01:50:04.715Z,21.28
2023-01-02T01:51:00.903Z,21.27
2023-01-02T01:51:59.882Z,21.27
2023-01-02T01:52:59.876Z,21.28
2023-01-02T01:53:59.851Z,21.27
2023-01-02T01:54:59.835Z,21.27
2023-01-02T01:55:59.814Z,21.28
2023-01-02T01:56:59.781Z,21.27
2023-01-02T01:57:59.784Z,21.27
2023-01-02T01:58:59.756Z,21.27
2023-01-02T01:59:59.737Z,21.27
2023-01-02T02:00:59.750Z,21.27
2023-01-02T02:01:59.874Z,21.27
2023-01-02T02:02:59.712Z,21.28
2023-01-02T02:03:59.662Z,21.27
2023-01-02T02:04:59.654Z,21.27
2023-01-02T02:05:59.638Z,21.28
2023-01-02T02:06:59.621Z,21.27
2023-01-02T02:07:59.604Z,21.28
2023-01-02T02:08:59.596Z,21.28
2023-01-02T02:09:59.583Z,21.28
2023-01-02T02:10:59.575Z,21.28
2023-01-02T02:11:59.560Z,21.28
2023-01-02T02:12:59.541Z,21.27
2023-01-02T02:13:59.533Z,21.28
2023-01-02T02:14:59.514Z,21.28
2023-01-02T02:15:59.503Z,21.28
2023-01-02T02:16:59.505Z,21.27
2023-01-02T02:17:59.466Z,21.28
2023-01-02T02:18:59.456Z,21.28
2023-01-02T02:19:59.452Z,21.28
2023-01-02T02:20:59.507Z,21.27
2023-01-02T02:21:59.395Z,21.28
2023-01-02T02:22:59.383Z,21.28
2023-01-02T02:23:59.373Z,21.28
2023-01-02T02:24:59.354Z,21.28
2023-01-02T02:25:59.330Z,21.28
2023-01-02T02:26:59.308Z,21.27
2023-01-02T02:27:59.290Z,21.26
2023-01-02T02:28:59.281Z,21.26
2023-01-02T02:29:59.258Z,21.27
2023-01-02T02:30:59.251Z,21.26
2023-01-02T02:31:59.324Z,21.26
2023-01-02T02:32:59.214Z,21.26
2023-01-02T02:33:59.206Z,21.27
2023-01-02T02:34:59.199Z,21.26
2023-01-02T02:35:59.211Z,21.28
2023-01-02T02:36:59.172Z,21.28
2023-01-02T02:37:59.156Z,21.27
2023-01-02T02:38:59.163Z,21.27
2023-01-02T02:39:59.148Z,21.26
2023-01-02T02:40:59.127Z,21.26
2023-01-02T02:41:59.105Z,21.26
2023-01-02T02:42:59.087Z,21.26
2023-01-02T02:43:59.085Z,21.27
2023-01-02T02:44:59.064Z,21.25
2023-01-02T02:45:59.270Z,21.25
2023-01-02T02:46:59.035Z,21.25
2023-01-02T02:47:59.010Z,21.25
2023-01-02T02:48:58.986Z,21.24
2023-01-02T02:49:58.973Z,21.25
2023-01-02T03:12:58.600Z,21.26
2023-01-02T03:13:58.599Z,21.25
2023-01-02T03:14:58.593Z,21.26
2023-01-02T03:15:58.568Z,21.26
2023-01-02T03:16:58.558Z,21.26
2023-01-02T03:17:58.519Z,21.25
2023-01-02T03:18:58.502Z,21.26
2023-01-02T03:19:58.498Z,21.25
2023-01-02T03:20:58.477Z,21.26
2023-01-02T03:21:58.448Z,21.25
2023-01-02T03:22:58.429Z,21.26
2023-01-02T03:23:58.420Z,21.25
2023-01-02T03:24:58.397Z,21.25
2023-01-02T03:25:58.386Z,21.25
2023-01-02T03:26:58.353Z,21.25
2023-01-02T03:27:58.337Z,21.25
2023-01-02T03:28:58.311Z,21.25
2023-01-02T03:29:58.287Z,21.25
2023-01-02T03:30:58.337Z,21.25
2023-01-02T03:31:58.277Z,21.25
2023-01-02T03:32:58.225Z,21.25
2023-01-02T03:33:58.196Z,21.24
2023-01-02T03:34:58.174Z,21.24
2023-01-02T03:35:58.152Z,21.24
2023-01-02T03:36:58.140Z,21.25
2023-01-02T03:37:58.102Z,21.25
2023-01-02T03:38:58.101Z,21.25
2023-01-02T03:39:58.058Z,21.25
2023-01-02T03:40:58.036Z,21.25
2023-01-02T03:41:58.013Z,21.24
2023-01-02T03:42:57.984Z,21.24
2023-01-02T03:43:57.959Z,21.24
2023-01-02T03:44:57.950Z,21.24
2023-01-02T03:45:57.937Z,21.24
2023-01-02T03:46:57.898Z,21.25
2023-01-02T03:47:57.875Z,21.24
2023-01-02T03:48:57.869Z,21.24
2023-01-02T03:49:57.830Z,21.24
2023-01-02T03:50:57.821Z,21.24
2023-01-02T03:51:57.786Z,21.24
2023-01-02T03:52:57.771Z,21.23
2023-01-02T03:53:57.759Z,21.25
2023-01-02T03:54:57.744Z,21.25
2023-01-02T03:55:57.746Z,21.25
2023-01-02T03:56:57.729Z,21.24
2023-01-02T03:57:57.818Z,21.23
2023-01-02T03:58:57.712Z,21.23
2023-01-02T03:59:57.694Z,21.24
2023-01-02T04:00:57.713Z,21.23
2023-01-02T04:01:57.774Z,21.24
2023-01-02T04:02:57.727Z,21.24
2023-01-02T04:03:57.646Z,21.24
2023-01-02T04:04:57.639Z,21.24
2023-01-02T04:05:57.613Z,21.23
2023-01-02T04:06:57.607Z,21.24
2023-01-02T04:07:57.600Z,21.24
2023-01-02T04:08:57.588Z,21.23
2023-01-02T04:09:57.576Z,21.24
2023-01-02T04:10:58.594Z,21.23
2023-01-02T04:11:57.546Z,21.24
2023-01-02T04:12:57.528Z,21.23
2023-01-02T04:13:57.515Z,21.23
2023-01-02T04:14:57.520Z,21.22
2023-01-02T04:15:57.572Z,21.23
2023-01-02T04:16:57.503Z,21.23
2023-01-02T04:17:57.483Z,21.23
2023-01-02T04:18:57.478Z,21.22
2023-01-02T04:19:57.465Z,21.22
2023-01-02T04:20:57.467Z,21.23
2023-01-02T04:21:57.447Z,21.23
2023-01-02T04:22:57.440Z,21.24
2023-01-02T04:23:57.434Z,21.24
2023-01-02T04:24:57.396Z,21.23
2023-01-02T04:25:57.390Z,21.24
2023-01-02T04:26:57.386Z,21.23
2023-01-02T04:27:57.379Z,21.24
2023-01-02T04:28:57.359Z,21.23
2023-01-02T04:29:57.349Z,21.23
2023-01-02T04:30:57.398Z,21.24
2023-01-02T04:31:57.334Z,21.24
2023-01-02T04:32:57.319Z,21.23
2023-01-02T04:33:57.312Z,21.22
2023-01-02T04:34:57.287Z,21.23
2023-01-02T04:35:57.265Z,21.23
2023-01-02T04:36:57.259Z,21.23
2023-01-02T04:37:57.238Z,21.24
2023-01-02T04:38:57.246Z,21.23
2023-01-02T04:39:57.197Z,21.23
2023-01-02T04:40:57.194Z,21.23
2023-01-02T04:41:57.173Z,21.23
2023-01-02T04:42:57.167Z,21.23
2023-01-02T04:43:57.159Z,21.23
2023-01-02T04:44:57.238Z,21.23
2023-01-02T04:45:57.143Z,21.22
2023-01-02T04:46:57.080Z,21.22
2023-01-02T04:47:57.064Z,21.22
2023-01-02T04:48:57.050Z,21.22
2023-01-02T04:49:57.018Z,21.23
2023-01-02T04:50:57.012Z,21.23
2023-01-02T04:51:57.008Z,21.23
2023-01-02T04:52:56.987Z,21.23
2023-01-02T04:53:56.976Z,21.23
2023-01-02T04:54:56.969Z,21.23
2023-01-02T04:55:56.948Z,21.23
2023-01-02T04:56:56.943Z,21.23
2023-01-02T04:57:56.928Z,21.24
2023-01-02T04:58:56.912Z,21.23
2023-01-02T04:59:56.900Z,21.23
2023-01-02T05:00:56.864Z,21.23
2023-01-02T05:01:56.921Z,21.23
2023-01-02T05:02:56.827Z,21.23
2023-01-02T05:03:56.863Z,21.23
2023-01-02T05:04:56.793Z,21.23
2023-01-02T05:05:56.781Z,21.24
2023-01-02T05:06:56.766Z,21.24
2023-01-02T05:07:56.761Z,21.23
2023-01-02T05:08:56.743Z,21.23
2023-01-02T05:09:56.787Z,21.23
2023-01-02T05:10:56.711Z,21.23
2023-01-02T05:11:56.694Z,21.24
2023-01-02T05:12:56.696Z,21.24
2023-01-02T05:13:56.674Z,21.23
2023-01-02T05:14:56.654Z,21.23
2023-01-02T05:15:56.710Z,21.23
2023-01-02T05:16:56.728Z,21.23
2023-01-02T05:17:56.625Z,21.23
2023-01-02T05:18:56.604Z,21.23
2023-01-02T05:19:56.596Z,21.22
2023-01-02T05:20:56.578Z,21.22
2023-01-02T05:21:56.564Z,21.22
2023-01-02T05:22:56.542Z,21.22
2023-01-02T05:23:56.552Z,21.23
2023-01-02T05:24:56.535Z,21.23
2023-01-02T05:25:56.510Z,21.23
2023-01-02T05:26:56.496Z,21.23
2023-01-02T05:27:56.490Z,21.23
2023-01-02T05:28:56.457Z,21.22
2023-01-02T05:29:56.455Z,21.22
2023-01-02T05:30:56.512Z,21.22
2023-01-02T05:31:56.417Z,21.22
2023-01-02T05:32:56.400Z,21.21
2023-01-02T05:33:56.394Z,21.23
2023-01-02T05:34:56.376Z,21.23
2023-01-02T05:35:56.362Z,21.23
2023-01-02T05:36:56.332Z,21.23
2023-01-02T05:37:56.333Z,21.22
2023-01-02T05:38:56.309Z,21.23
2023-01-02T05:39:56.308Z,21.23
2023-01-02T05:40:56.274Z,21.23
2023-01-02T05:41:56.281Z,21.23
2023-01-02T05:42:56.249Z,21.24
2023-01-02T05:43:56.247Z,21.22
2023-01-02T05:44:56.216Z,21.23
2023-01-02T05:45:56.197Z,21.23
2023-01-02T05:46:56.252Z,21.22
2023-01-02T05:47:56.183Z,21.23
2023-01-02T05:48:56.160Z,21.22
2023-01-02T05:49:56.137Z,21.23
2023-01-02T05:50:56.104Z,21.23
2023-01-02T05:51:56.084Z,21.22
2023-01-02T05:52:56.063Z,21.23
2023-01-02T05:53:56.033Z,21.23
2023-01-02T05:54:56.014Z,21.23
2023-01-02T05:55:55.988Z,21.22
2023-01-02T05:56:55.966Z,21.22
2023-01-02T05:57:55.968Z,21.22
2023-01-02T05:58:55.935Z,21.22
2023-01-02T05:59:55.925Z,21.22
2023-01-02T06:00:55.894Z,21.22
2023-01-02T06:01:55.917Z,21.22
2023-01-02T06:02:55.972Z,21.22
2023-01-02T06:03:55.862Z,21.22
2023-01-02T06:04:55.917Z,21.22
2023-01-02T06:05:55.808Z,21.23
2023-01-02T06:06:55.792Z,21.22
2023-01-02T06:07:55.775Z,21.22
2023-01-02T06:08:55.763Z,21.22
2023-01-02T06:09:55.749Z,21.22
2023-01-02T06:10:55.728Z,21.22
2023-01-02T06:11:55.703Z,21.22
2023-01-02T06:12:55.690Z,21.22
2023-01-02T06:13:55.668Z,21.22
2023-01-02T06:14:55.651Z,21.22
2023-01-02T06:15:55.644Z,21.22
2023-01-02T06:16:55.610Z,21.23
2023-01-02T06:17:55.603Z,21.22
2023-01-02T06:18:55.588Z,21.22
2023-01-02T06:19:55.574Z,21.23
2023-01-02T06:20:55.672Z,21.22
2023-01-02T06:21:55.590Z,21.22
2023-01-02T06:22:55.542Z,21.22
2023-01-02T06:23:55.527Z,21.22
2023-01-02T06:24:55.514Z,21.23
2023-01-02T06:25:55.490Z,21.22
2023-01-02T06:26:55.472Z,21.22
2023-01-02T06:27:55.477Z,21.22
2023-01-02T06:28:55.452Z,21.22
2023-01-02T06:29:55.428Z,21.22
2023-01-02T06:30:55.418Z,21.22
2023-01-02T06:31:55.427Z,21.22
2023-01-02T06:32:55.373Z,21.22
2023-01-02T06:33:55.351Z,21.22
2023-01-02T06:34:55.322Z,21.22
2023-01-02T06:35:55.316Z,21.22
2023-01-02T06:36:55.288Z,21.21
2023-01-02T06:37:55.268Z,21.21
2023-01-02T06:38:55.266Z,21.22
2023-01-02T06:39:55.232Z,21.22
2023-01-02T06:40:55.221Z,21.21
2023-01-02T06:41:55.198Z,21.22
2023-01-02T06:42:59.888Z,21.22
2023-01-02T06:43:56.168Z,21.21
2023-01-02T06:44:55.140Z,21.21
2023-01-02T06:45:55.189Z,21.21
2023-01-02T06:46:55.100Z,21.22
2023-01-02T06:47:55.088Z,21.22
2023-01-02T06:48:55.079Z,21.22
2023-01-02T06:49:55.071Z,21.22
2023-01-02T06:50:55.052Z,21.22
2023-01-02T06:51:55.061Z,21.22
2023-01-02T06:52:55.051Z,21.21
2023-01-02T06:53:55.023Z,21.22
2023-01-02T06:54:55.014Z,21.21
2023-01-02T06:55:55.012Z,21.21
2023-01-02T06:56:54.996Z,21.22
2023-01-02T06:57:54.988Z,21.22
2023-01-02T06:58:55.001Z,21.22
2023-01-02T06:59:54.988Z,21.23
2023-01-02T07:00:54.978Z,21.23
2023-01-02T07:01:55.076Z,21.23
2023-01-02T07:02:54.944Z,21.23
2023-01-02T07:03:54.925Z,21.23
2023-01-02T07:04:54.908Z,21.23
2023-01-02T07:05:54.870Z,21.24
2023-01-02T07:06:54.866Z,21.24
2023-01-02T07:07:54.834Z,21.23
2023-01-02T07:08:54.827Z,21.23
2023-01-02T07:09:54.830Z,21.24
2023-01-02T07:10:54.807Z,21.24
2023-01-02T07:11:54.816Z,21.25
2023-01-02T07:12:54.776Z,21.24
2023-01-02T07:13:54.792Z,21.24
2023-01-02T07:14:54.756Z,21.24
2023-01-02T07:15:54.748Z,21.24
2023-01-02T07:16:54.804Z,21.24
2023-01-02T07:17:54.723Z,21.24
2023-01-02T07:18:54.711Z,21.24
2023-01-02T07:19:58.300Z,21.25
2023-01-02T07:20:55.686Z,21.23
2023-01-02T07:21:54.679Z,21.24
2023-01-02T07:22:54.685Z,21.24
2023-01-02T07:23:54.643Z,21.25
2023-01-02T07:24:54.623Z,21.25
2023-01-02T07:25:54.612Z,21.25
2023-01-02T07:26:54.595Z,21.25
2023-01-02T07:27:54.587Z,21.25
2023-01-02T07:28:54.569Z,21.25
2023-01-02T07:29:54.646Z,21.25
2023-01-02T07:30:54.539Z,21.25
2023-01-02T07:31:54.576Z,21.25
2023-01-02T07:32:54.498Z,21.25
2023-01-02T07:33:54.502Z,21.25
2023-01-02T07:34:54.520Z,21.26
2023-01-02T07:35:54.458Z,21.26
2023-01-02T07:36:54.432Z,21.26
2023-01-02T07:37:54.433Z,21.27
2023-01-02T07:38:54.407Z,21.26
2023-01-02T07:39:54.406Z,21.26
2023-01-02T07:40:54.374Z,21.26
2023-01-02T07:41:54.365Z,21.26
2023-01-02T07:42:54.347Z,21.27
2023-01-02T07:43:54.336Z,21.28
2023-01-02T07:44:54.311Z,21.30
2023-01-02T07:45:54.306Z,21.31
2023-01-02T07:46:54.270Z,21.31
2023-01-02T07:47:54.254Z,21.33
2023-01-02T07:48:54.226Z,21.34
2023-01-02T07:49:54.219Z,21.34
2023-01-02T07:50:54.188Z,21.35
2023-01-02T07:51:54.177Z,21.36
2023-01-02T07:52:54.144Z,21.36
2023-01-02T07:53:54.155Z,21.36
2023-01-02T07:54:54.123Z,21.38
2023-01-02T07:55:54.164Z,21.37
2023-01-02T07:56:54.086Z,21.37
2023-01-02T07:57:54.037Z,21.38
2023-01-02T07:58:54.021Z,21.38
2023-01-02T07:59:54.009Z,21.40
2023-01-02T08:00:56.362Z,21.40
2023-01-02T08:01:54.074Z,21.40
2023-01-02T08:02:53.927Z,21.40
2023-01-02T08:03:53.954Z,21.40
2023-01-02T08:04:53.888Z,21.40
2023-01-02T08:05:53.862Z,21.40
2023-01-02T08:06:53.837Z,21.40
2023-01-02T08:07:53.822Z,21.39
2023-01-02T08:08:53.792Z,21.40
2023-01-02T08:09:53.785Z,21.39
2023-01-02T08:10:53.771Z,21.40
2023-01-02T08:11:53.760Z,21.40
2023-01-02T08:12:53.838Z,21.40
2023-01-02T08:13:53.716Z,21.40
2023-01-02T08:14:53.704Z,21.40
2023-01-02T08:15:53.697Z,21.40
2023-01-02T08:16:53.699Z,21.41
2023-01-02T08:17:53.674Z,21.40
2023-01-02T08:18:53.645Z,21.40
2023-01-02T08:19:53.636Z,21.41
2023-01-02T08:20:53.621Z,21.39
2023-01-02T08:21:53.596Z,21.39
2023-01-02T08:22:53.578Z,21.40
2023-01-02T08:23:53.572Z,21.40
2023-01-02T08:24:53.526Z,21.41
2023-01-02T08:25:57.488Z,21.41
2023-01-02T08:26:53.478Z,21.41
2023-01-02T08:27:53.447Z,21.41
2023-01-02T08:28:53.434Z,21.42
2023-01-02T08:29:53.412Z,21.40
2023-01-02T08:30:53.450Z,21.41
2023-01-02T08:31:53.355Z,21.41
2023-01-02T08:32:53.322Z,21.42
2023-01-02T08:33:53.304Z,21.41
2023-01-02T08:34:53.286Z,21.42
2023-01-02T08:35:53.283Z,21.42
2023-01-02T08:36:53.239Z,21.42
2023-01-02T08:37:53.225Z,21.43
2023-01-02T08:38:53.207Z,21.44
2023-01-02T08:39:53.196Z,21.44
2023-01-02T08:40:53.166Z,21.43
2023-01-02T08:41:53.152Z,21.43
2023-01-02T08:42:53.129Z,21.42
2023-01-02T08:43:53.110Z,21.43
2023-01-02T08:44:53.089Z,21.43
2023-01-02T08:45:53.085Z,21.43
2023-01-02T08:46:53.047Z,21.43
2023-01-02T08:47:53.059Z,21.43
2023-01-02T08:48:53.004Z,21.43
2023-01-02T08:49:52.987Z,21.44
2023-01-02T08:50:52.969Z,21.44
2023-01-02T08:51:52.955Z,21.44
2023-01-02T08:52:52.986Z,21.45
2023-01-02T08:53:52.912Z,21.45
2023-01-02T08:54:52.893Z,21.46
2023-01-02T08:55:52.896Z,21.47
2023-01-02T08:56:52.887Z,21.46
2023-01-02T08:57:52.820Z,21.49
2023-01-02T08:58:53.134Z,21.51
2023-01-02T08:59:52.804Z,21.52
2023-01-02T09:00:52.793Z,21.54
2023-01-02T09:01:52.847Z,21.55
2023-01-02T09:02:52.883Z,21.56
2023-01-02T09:03:52.761Z,21.57
2023-01-02T09:04:52.751Z,21.58
2023-01-02T09:05:52.754Z,21.59
2023-01-02T09:06:52.723Z,21.60
2023-01-02T09:07:52.733Z,21.61
2023-01-02T09:08:52.702Z,21.61
2023-01-02T09:09:52.690Z,21.61
2023-01-02T09:10:52.662Z,21.63
2023-01-02T09:11:52.646Z,21.63
2023-01-02T09:12:52.643Z,21.64
2023-01-02T09:13:52.601Z,21.64
2023-01-02T09:14:52.591Z,21.64
2023-01-02T09:15:52.630Z,21.65
2023-01-02T09:16:52.645Z,21.66
2023-01-02T09:17:52.513Z,21.67
2023-01-02T09:18:52.516Z,21.67
2023-01-02T09:19:52.479Z,21.67
2023-01-02T09:20:52.465Z,21.67
2023-01-02T09:21:52.449Z,21.68
2023-01-02T09:40:52.156Z,21.72
2023-01-02T09:41:52.168Z,21.72
2023-01-02T09:42:52.144Z,21.73
2023-01-02T09:43:52.107Z,21.73
2023-01-02T09:44:52.101Z,21.74
2023-01-02T09:45:52.093Z,21.74
2023-01-02T09:46:52.065Z,21.74
2023-01-02T09:47:52.045Z,21.75
2023-01-02T09:48:52.033Z,21.75
2023-01-02T09:49:52.005Z,21.76
2023-01-02T09:50:51.991Z,21.76
2023-01-02T09:51:51.972Z,21.78
2023-01-02T09:52:51.941Z,21.80
2023-01-02T09:53:51.920Z,21.81
2023-01-02T09:54:51.910Z,21.82
2023-01-02T09:55:51.913Z,21.83
2023-01-02T09:56:51.871Z,21.84
2023-01-02T09:57:51.852Z,21.86
2023-01-02T09:58:51.828Z,21.87
2023-01-02T09:59:51.816Z,21.89
2023-01-02T10:00:51.775Z,21.90
2023-01-02T10:01:51.834Z,21.92
2023-01-02T10:02:51.778Z,21.94
2023-01-02T10:03:52.467Z,21.95
2023-01-02T10:04:51.692Z,21.95
2023-01-02T10:05:51.662Z,21.95
2023-01-02T10:06:51.661Z,21.97
2023-01-02T10:07:51.618Z,21.99
2023-01-02T10:08:51.589Z,21.99
2023-01-02T10:09:51.562Z,21.99
2023-01-02T10:10:51.555Z,21.99
2023-01-02T10:12:51.502Z,22.01
2023-01-02T10:14:17.965Z,22.01
2023-01-02T10:14:52.449Z,22.01
2023-01-02T10:15:51.567Z,22.02
2023-01-02T10:16:51.420Z,22.03
2023-01-02T10:17:51.399Z,22.06
2023-01-02T10:18:51.382Z,22.07
2023-01-02T10:19:51.362Z,22.08
2023-01-02T10:20:51.347Z,22.08
2023-01-02T10:21:51.330Z,22.09
2023-01-02T10:22:51.359Z,22.09
2023-01-02T10:23:51.302Z,22.11
2023-01-02T10:24:51.288Z,22.12
2023-01-02T10:25:53.097Z,22.12
2023-01-02T10:26:51.274Z,22.12
2023-01-02T10:27:51.275Z,22.14
2023-01-02T10:28:51.242Z,22.14
2023-01-02T10:29:51.214Z,22.15
2023-01-02T10:30:51.232Z,22.16
2023-01-02T10:31:51.214Z,22.15
2023-01-02T10:32:51.159Z,22.16
2023-01-02T10:33:51.208Z,22.16
2023-01-02T10:34:51.130Z,22.15
2023-01-02T10:35:51.117Z,22.17
2023-01-02T10:36:51.090Z,22.17
2023-01-02T10:37:51.077Z,22.18
2023-01-02T10:38:51.056Z,22.19
2023-01-02T10:39:51.025Z,22.20
2023-01-02T10:40:51.033Z,22.19
2023-01-02T10:41:50.990Z,22.17
2023-01-02T10:42:55.964Z,22.17
2023-01-02T10:43:51.955Z,22.15
2023-01-02T10:44:50.941Z,22.16
2023-01-02T10:45:50.923Z,22.16
2023-01-02T10:46:50.985Z,22.15
2023-01-02T10:47:50.902Z,22.17
2023-01-02T10:48:52.411Z,22.16
2023-01-02T10:49:50.845Z,22.17
2023-01-02T10:50:50.829Z,22.17
2023-01-02T10:51:50.807Z,22.16
2023-01-02T10:52:50.864Z,22.16
2023-01-02T10:53:50.760Z,22.16
2023-01-02T10:54:56.781Z,22.17
2023-01-02T10:55:51.726Z,22.16
2023-01-02T10:56:50.706Z,22.17
2023-01-02T10:57:50.703Z,22.17
2023-01-02T10:58:50.682Z,22.17
2023-01-02T10:59:50.643Z,22.17
2023-01-02T11:00:50.783Z,22.16
2023-01-02T11:01:50.714Z,22.17
2023-01-02T11:02:50.671Z,22.16
2023-01-02T11:03:50.547Z,22.16
2023-01-02T11:04:50.523Z,22.17
2023-01-02T11:05:50.517Z,22.17
2023-01-02T11:06:50.499Z,22.17
2023-01-02T11:07:50.478Z,22.16
2023-01-02T11:08:50.466Z,22.16
2023-01-02T11:09:50.446Z,22.17
2023-01-02T11:10:50.423Z,22.16
2023-01-02T11:11:50.397Z,22.17
2023-01-02T11:12:50.387Z,22.16
2023-01-02T11:13:54.133Z,22.17
2023-01-02T11:14:50.345Z,22.17
2023-01-02T11:15:50.344Z,22.17
2023-01-02T11:16:50.300Z,22.16
2023-01-02T11:17:50.262Z,22.17
2023-01-02T11:18:50.265Z,22.17
2023-01-02T11:19:50.224Z,22.17
2023-01-02T11:20:50.188Z,22.16
2023-01-02T11:21:50.160Z,22.16
2023-01-02T11:22:50.134Z,22.16
2023-01-02T11:23:50.097Z,22.16
2023-01-02T11:24:54.422Z,22.17
2023-01-02T11:25:50.049Z,22.16
2023-01-02T11:26:50.039Z,22.16
2023-01-02T11:27:50.002Z,22.16
2023-01-02T11:28:49.985Z,22.17
2023-01-02T11:29:49.967Z,22.16
2023-01-02T11:30:49.946Z,22.16
2023-01-02T11:31:55.203Z,22.17
2023-01-02T11:33:49.877Z,22.17
2023-01-02T11:34:49.842Z,22.17
2023-01-02T11:35:49.819Z,22.17
2023-01-02T11:36:49.788Z,22.18
2023-01-02T11:37:49.756Z,22.18
2023-01-02T11:51:49.404Z,22.20
2023-01-02T11:52:49.401Z,22.20
2023-01-02T11:53:49.362Z,22.21
2023-01-02T11:54:49.333Z,22.20
2023-01-02T11:55:49.292Z,22.19
2023-01-02T11:56:49.268Z,22.19
2023-01-02T11:57:49.237Z,22.19
2023-01-02T11:58:49.217Z,22.19
2023-01-02T11:59:49.176Z,22.19
2023-01-02T12:00:49.145Z,22.20
2023-01-02T12:01:49.271Z,22.19
2023-01-02T12:02:49.243Z,22.19
2023-01-02T12:03:49.185Z,22.20
2023-01-02T12:04:49.043Z,22.20
2023-01-02T12:05:49.008Z,22.20
2023-01-02T12:06:48.991Z,22.19
2023-01-02T12:07:48.962Z,22.19
2023-01-02T14:47:44.815Z,21.97
2023-01-02T14:49:44.752Z,21.97
2023-01-02T14:50:44.744Z,21.96
2023-01-02T14:51:44.713Z,21.97
2023-01-02T14:52:44.696Z,21.96
2023-01-02T14:53:44.666Z,21.96
2023-01-02T14:54:44.629Z,21.96
2023-01-02T14:55:44.612Z,21.96
2023-01-02T14:56:44.592Z,21.96
2023-01-02T14:57:44.562Z,21.96
2023-01-02T14:58:44.524Z,21.95
2023-01-02T14:59:44.505Z,21.95
2023-01-02T15:00:44.473Z,21.95
2023-01-02T15:01:44.915Z,21.95
2023-01-02T15:02:44.626Z,21.95
2023-01-02T15:03:44.486Z,21.94
2023-01-02T15:04:44.393Z,21.94
2023-01-02T15:05:44.356Z,21.94
2023-01-02T15:06:44.333Z,21.94
2023-01-02T15:07:44.322Z,21.93
2023-01-02T15:08:44.300Z,21.93
2023-01-02T15:09:44.285Z,21.93
2023-01-02T15:10:44.267Z,21.93
2023-01-02T15:11:44.245Z,21.93
2023-01-02T15:12:44.217Z,21.93
2023-01-02T15:14:04.437Z,21.93
2023-01-02T15:14:45.172Z,21.93
2023-01-02T15:15:44.209Z,21.93
2023-01-02T15:16:44.112Z,21.92
2023-01-02T15:17:44.103Z,21.92
2023-01-02T15:18:44.075Z,21.92
2023-01-02T15:19:44.054Z,21.92
2023-01-02T15:20:44.031Z,21.92
2023-01-02T15:21:44.022Z,21.91
2023-01-02T15:22:43.992Z,21.91
2023-01-02T15:23:43.974Z,21.92
2023-01-02T15:24:43.948Z,21.91
2023-01-02T15:25:43.923Z,21.91
2023-01-02T15:26:43.905Z,21.91
2023-01-02T15:27:43.881Z,21.91
2023-01-02T15:28:43.855Z,21.91
2023-01-02T15:29:47.280Z,21.90
2023-01-02T15:30:43.815Z,21.90
2023-01-02T15:31:43.809Z,21.90
2023-01-02T15:32:43.783Z,21.90
2023-01-02T15:33:43.760Z,21.89
2023-01-02T15:34:43.740Z,21.89
2023-01-02T15:35:43.721Z,21.89
2023-01-02T15:36:43.707Z,21.89
2023-01-02T15:37:43.705Z,21.89
2023-01-02T15:38:43.678Z,21.89
2023-01-02T15:39:43.658Z,21.89
2023-01-02T15:40:43.673Z,21.89
2023-01-02T15:41:43.618Z,21.89
2023-01-02T15:42:43.605Z,21.88
2023-01-02T15:43:43.572Z,21.89
2023-01-02T15:44:43.537Z,21.89
2023-01-02T15:45:43.521Z,21.89
2023-01-02T15:46:43.539Z,21.88
2023-01-02T15:47:43.500Z,21.88
2023-01-02T15:48:43.455Z,21.88
2023-01-02T15:49:43.438Z,21.88
2023-01-02T15:50:43.417Z,21.87
2023-01-02T15:51:43.399Z,21.87
2023-01-02T15:52:43.375Z,21.87
2023-01-02T15:53:43.366Z,21.87
2023-01-02T15:54:43.342Z,21.87
2023-01-02T15:55:43.309Z,21.87
2023-01-02T15:56:43.349Z,21.87
2023-01-02T15:57:43.282Z,21.85
2023-01-02T15:58:43.255Z,21.85
2023-01-02T15:59:43.223Z,21.85
2023-01-02T16:00:43.228Z,21.85
2023-01-02T16:01:43.271Z,21.86
2023-01-02T16:02:43.475Z,21.85
2023-01-02T16:04:01.770Z,21.85
2023-01-02T16:05:43.108Z,21.85
2023-01-02T16:06:43.144Z,21.84
2023-01-02T16:07:43.049Z,21.84
2023-01-02T16:08:43.029Z,21.85
2023-01-02T16:09:43.021Z,21.84
2023-01-02T16:10:47.571Z,21.85
2023-01-02T16:12:42.937Z,21.84
2023-01-02T16:13:42.911Z,21.85
2023-01-02T16:14:42.890Z,21.84
2023-01-02T16:15:42.860Z,21.84
2023-01-02T16:16:42.948Z,21.84
2023-01-02T16:17:42.818Z,21.83
2023-01-02T16:18:42.793Z,21.83
2023-01-02T16:19:42.767Z,21.83
2023-01-02T16:20:42.742Z,21.83
2023-01-02T16:21:42.722Z,21.82
2023-01-02T16:22:42.743Z,21.82
2023-01-02T16:23:42.709Z,21.82
2023-01-02T16:24:42.649Z,21.82
2023-01-02T16:25:42.645Z,21.83
2023-01-02T16:26:42.596Z,21.82
2023-01-02T16:27:42.571Z,21.82
2023-01-02T16:28:42.632Z,21.81